Time;durP1;ratioP1;P1;durP2;ratioP2;P2;SDS_P1;SDS_P2;PMS_P1;PMS_P2;Temp;Humidity;BMP_temperature;BMP_pressure;BME280_temperature;BME280_humidity;BME280_pressure;Samples;Min_cycle;Max_cycle;Signal;HPM_P1;HPM_P2
2021/11/11 00:00:47;;;;;;;65.70;36.65;;;0.60;99.90;;;;;;4955694;28;20042;-73
2021/11/11 00:03:13;;;;;;;49.92;36.85;;;0.70;99.90;;;;;;4969986;28;20058;-73
2021/11/11 00:05:40;;;;;;;54.50;37.25;;;0.80;99.90;;;;;;4955111;28;20059;-73
2021/11/11 00:08:06;;;;;;;66.28;38.67;;;0.90;99.90;;;;;;4956146;28;20035;-73
2021/11/11 00:10:32;;;;;;;44.85;36.90;;;0.90;99.90;;;;;;4970132;28;20043;-73
2021/11/11 00:12:59;;;;;;;42.13;36.13;;;0.90;99.90;;;;;;4955321;28;20051;-74
2021/11/11 00:15:28;;;;;;;45.85;34.63;;;1.00;99.90;;;;;;4955398;28;20119;-73
2021/11/11 00:17:55;;;;;;;76.47;36.17;;;1.00;99.90;;;;;;4955273;28;20035;-77
2021/11/11 00:20:24;;;;;;;64.95;32.88;;;1.10;99.90;;;;;;4954306;28;20039;-73
2021/11/11 00:22:51;;;;;;;61.53;33.70;;;1.10;99.90;;;;;;4956392;28;20043;-74
2021/11/11 00:25:19;;;;;;;39.95;30.27;;;1.10;99.90;;;;;;4970140;28;20030;-74
2021/11/11 00:27:46;;;;;;;45.10;30.63;;;1.10;99.90;;;;;;4955102;28;20027;-73
2021/11/11 00:30:15;;;;;;;45.15;30.10;;;1.10;99.90;;;;;;4955629;28;20035;-73
2021/11/11 00:32:43;;;;;;;44.00;28.23;;;1.10;99.90;;;;;;4954884;28;20039;-74
2021/11/11 00:35:15;;;;;;;49.80;28.95;;;1.00;99.90;;;;;;4955091;28;20039;-74
2021/11/11 00:37:41;;;;;;;63.20;30.38;;;0.90;99.90;;;;;;4963668;28;20062;-74
2021/11/11 00:40:09;;;;;;;40.58;27.88;;;0.90;99.90;;;;;;4956285;28;20397;-73
2021/11/11 00:42:38;;;;;;;40.60;29.77;;;0.90;99.90;;;;;;4967584;28;20050;-73
2021/11/11 00:45:06;;;;;;;33.75;27.35;;;0.90;99.90;;;;;;4972221;28;20392;-73
2021/11/11 00:47:33;;;;;;;58.35;31.75;;;0.90;99.90;;;;;;4967653;28;20031;-74
2021/11/11 00:49:59;;;;;;;53.80;30.92;;;0.90;99.90;;;;;;4954246;28;20043;-73
2021/11/11 00:52:25;;;;;;;30.35;27.15;;;0.80;99.90;;;;;;4954521;28;20043;-74
2021/11/11 00:54:52;;;;;;;44.20;29.20;;;0.80;99.90;;;;;;4955640;28;20032;-73
2021/11/11 00:57:28;;;;;;;39.95;29.23;;;0.70;99.90;;;;;;4952720;28;20039;-74
2021/11/11 00:59:54;;;;;;;76.00;30.73;;;0.60;99.90;;;;;;4957501;28;20388;-73
2021/11/11 01:02:20;;;;;;;47.08;27.83;;;0.60;99.90;;;;;;4960290;28;20038;-81
2021/11/11 01:04:47;;;;;;;31.80;26.75;;;0.60;99.90;;;;;;4952951;28;20047;-73
2021/11/11 01:07:13;;;;;;;32.50;26.17;;;0.60;99.90;;;;;;4954652;28;20361;-74
2021/11/11 01:09:39;;;;;;;54.50;33.28;;;0.60;99.90;;;;;;4954077;28;20110;-73
2021/11/11 01:12:08;;;;;;;52.42;32.05;;;0.60;99.90;;;;;;4954726;29;20039;-73
2021/11/11 01:14:35;;;;;;;50.55;28.52;;;0.60;99.90;;;;;;4951085;28;20380;-73
2021/11/11 01:17:05;;;;;;;77.88;32.35;;;0.60;99.90;;;;;;4968805;28;20035;-73
2021/11/11 01:19:31;;;;;;;67.88;35.58;;;0.50;99.90;;;;;;4953343;28;20112;-73
2021/11/11 01:21:58;;;;;;;58.97;30.05;;;0.60;99.90;;;;;;4954803;28;20042;-73
2021/11/11 01:24:24;;;;;;;34.92;31.23;;;0.60;99.90;;;;;;4954445;28;20038;-73
2021/11/11 01:26:50;;;;;;;57.80;33.17;;;0.60;99.90;;;;;;4969312;28;20055;-73
2021/11/11 01:29:20;;;;;;;79.00;32.33;;;0.70;99.90;;;;;;4937450;29;20472;-74
2021/11/11 01:31:47;;;;;;;98.55;31.17;;;0.70;99.90;;;;;;4954319;28;20040;-74
2021/11/11 01:34:14;;;;;;;39.42;28.27;;;0.60;99.90;;;;;;4936812;29;20377;-73
2021/11/11 01:36:41;;;;;;;61.10;30.80;;;0.60;99.90;;;;;;4958858;28;20041;-73
2021/11/11 01:39:13;;;;;;;62.22;31.50;;;0.60;99.90;;;;;;4954347;28;20057;-73
2021/11/11 01:41:50;;;;;;;80.15;34.90;;;0.60;99.90;;;;;;4948657;29;20106;-74
2021/11/11 01:44:18;;;;;;;58.22;31.48;;;0.70;99.90;;;;;;4960989;28;20047;-73
2021/11/11 01:46:46;;;;;;;80.53;32.88;;;0.50;99.90;;;;;;4939896;29;20373;-73
2021/11/11 01:49:15;;;;;;;59.63;31.38;;;0.40;99.90;;;;;;4968696;28;20039;-73
2021/11/11 01:51:47;;;;;;;54.78;30.70;;;0.40;99.90;;;;;;4947861;28;20415;-73
2021/11/11 01:54:15;;;;;;;44.47;30.65;;;0.30;99.90;;;;;;4953412;28;20047;-73
2021/11/11 01:56:41;;;;;;;56.97;31.58;;;0.40;99.90;;;;;;4951645;28;20038;-73
2021/11/11 01:59:16;;;;;;;70.40;32.33;;;0.40;99.90;;;;;;4968788;28;20387;-73
2021/11/11 02:01:43;;;;;;;30.65;27.27;;;0.30;99.90;;;;;;4968297;28;20043;-76
2021/11/11 02:04:12;;;;;;;32.67;28.80;;;0.20;99.90;;;;;;4952867;28;20087;-73
2021/11/11 02:06:50;;;;;;;26.55;23.52;;;0.30;99.90;;;;;;4969156;28;20546;-73
2021/11/11 02:09:23;;;;;;;49.58;32.42;;;0.20;99.90;;;;;;4967617;28;20050;-77
2021/11/11 02:12:04;;;;;;;;;;;0.20;99.90;;;;;;4953894;28;20043;-73
2021/11/11 02:14:31;;;;;;;44.30;29.67;;;0.10;99.90;;;;;;4978950;28;19922;-73
2021/11/11 02:17:01;;;;;;;39.03;31.92;;;0.10;99.90;;;;;;4964561;28;20047;-73
2021/11/11 02:20:06;;;;;;;35.33;31.48;;;0.10;99.90;;;;;;4951884;28;20035;-73
2021/11/11 02:23:04;;;;;;;38.38;32.38;;;0.10;99.90;;;;;;4922280;29;20040;-73
2021/11/11 02:26:03;;;;;;;34.42;30.55;;;0.00;99.90;;;;;;4952370;28;20042;-73
2021/11/11 02:28:47;;;;;;;35.90;30.52;;;0.00;99.90;;;;;;4952128;28;20051;-73
2021/11/11 02:31:14;;;;;;;45.17;33.80;;;0.10;99.90;;;;;;4968148;28;20119;-73
2021/11/11 02:33:54;;;;;;;50.60;32.38;;;0.00;99.90;;;;;;4957278;28;20043;-73
2021/11/11 02:36:26;;;;;;;49.80;31.33;;;0.00;99.90;;;;;;4962445;28;20397;-73
2021/11/11 02:38:54;;;;;;;60.40;33.13;;;0.00;99.90;;;;;;4955671;28;20043;-72
2021/11/11 02:41:21;;;;;;;54.10;33.63;;;0.00;99.90;;;;;;4965374;28;20540;-72
2021/11/11 02:43:48;;;;;;;55.03;34.30;;;0.10;99.90;;;;;;4952437;28;20048;-72
2021/11/11 02:46:18;;;;;;;43.40;32.97;;;0.20;99.90;;;;;;4951820;28;20043;-73
2021/11/11 02:48:45;;;;;;;53.17;35.38;;;0.20;99.90;;;;;;4967626;28;20362;-72
2021/11/11 02:51:11;;;;;;;67.28;38.20;;;0.30;99.90;;;;;;4978700;28;20046;-72
2021/11/11 02:53:42;;;;;;;64.55;36.63;;;0.30;99.90;;;;;;4967358;28;20039;-72
2021/11/11 02:56:08;;;;;;;64.95;38.17;;;0.40;99.90;;;;;;4955259;28;20047;-72
2021/11/11 02:58:40;;;;;;;59.75;38.97;;;0.50;99.90;;;;;;4958269;28;20039;-73
2021/11/11 03:01:07;;;;;;;58.10;41.65;;;0.50;99.90;;;;;;4975109;28;20046;-72
2021/11/11 03:03:34;;;;;;;77.07;39.60;;;0.60;99.90;;;;;;4969120;28;20050;-71
2021/11/11 03:06:04;;;;;;;73.72;43.63;;;0.70;99.90;;;;;;4946635;28;20500;-71
2021/11/11 03:08:33;;;;;;;56.30;39.33;;;0.60;99.90;;;;;;4967621;28;20048;-72
2021/11/11 03:11:03;;;;;;;89.90;44.08;;;0.70;99.90;;;;;;4971658;28;20035;-72
2021/11/11 03:13:37;;;;;;;90.40;42.55;;;0.80;99.90;;;;;;4954405;28;20058;-72
2021/11/11 03:16:07;;;;;;;87.88;43.13;;;0.80;99.90;;;;;;4971595;28;20389;-74
2021/11/11 03:18:36;;;;;;;93.63;44.97;;;0.90;99.90;;;;;;4956186;28;20038;-72
2021/11/11 03:21:03;;;;;;;77.97;41.13;;;0.90;99.90;;;;;;4967331;28;20031;-72
2021/11/11 03:23:29;;;;;;;81.78;41.63;;;0.90;99.90;;;;;;4956075;28;20035;-72
2021/11/11 03:25:59;;;;;;;75.18;41.80;;;0.90;99.90;;;;;;4955086;28;20058;-71
2021/11/11 03:28:33;;;;;;;72.45;40.78;;;1.00;99.90;;;;;;4969013;28;20039;-72
2021/11/11 03:31:00;;;;;;;67.55;40.20;;;0.90;99.90;;;;;;4971179;28;20046;-71
2021/11/11 03:33:27;;;;;;;78.43;42.38;;;1.00;99.90;;;;;;4955590;28;20043;-72
2021/11/11 03:35:53;;;;;;;89.00;44.10;;;1.00;99.90;;;;;;4955078;28;20066;-72
2021/11/11 03:38:21;;;;;;;68.45;39.60;;;1.00;99.90;;;;;;4956822;28;20043;-71
2021/11/11 03:40:49;;;;;;;71.32;40.75;;;0.90;99.90;;;;;;4970900;28;20040;-71
2021/11/11 03:43:27;;;;;;;83.40;41.13;;;0.90;99.90;;;;;;4970689;28;20058;-72
2021/11/11 03:46:00;;;;;;;89.18;41.08;;;0.90;99.90;;;;;;4954565;28;20043;-72
2021/11/11 03:48:26;;;;;;;91.47;41.60;;;0.90;99.90;;;;;;4970434;28;20396;-72
2021/11/11 03:50:55;;;;;;;81.05;40.20;;;0.90;99.90;;;;;;4970593;28;20039;-72
2021/11/11 03:53:24;;;;;;;71.38;42.13;;;0.90;99.90;;;;;;4955574;28;20062;-73
2021/11/11 03:55:52;;;;;;;56.80;39.25;;;1.00;99.90;;;;;;4968249;28;20051;-72
2021/11/11 03:58:24;;;;;;;63.03;37.90;;;1.00;99.90;;;;;;4971013;28;20055;-72
2021/11/11 04:00:51;;;;;;;75.97;38.90;;;0.90;99.90;;;;;;4970076;28;20339;-72
2021/11/11 04:03:17;;;;;;;53.10;37.30;;;0.90;99.90;;;;;;4976898;28;20043;-72
2021/11/11 04:05:45;;;;;;;67.28;38.78;;;0.90;99.90;;;;;;4967526;28;20532;-72
2021/11/11 04:08:14;;;;;;;59.88;36.65;;;0.90;99.90;;;;;;4954337;28;20046;-72
2021/11/11 04:10:43;;;;;;;61.72;37.13;;;0.90;99.90;;;;;;4953665;29;20477;-72
2021/11/11 04:13:26;;;;;;;56.35;37.53;;;0.90;99.90;;;;;;4953942;28;20062;-72
2021/11/11 04:15:56;;;;;;;41.45;33.83;;;0.80;99.90;;;;;;4953823;28;20043;-72
2021/11/11 04:18:26;;;;;;;64.18;39.28;;;0.80;99.90;;;;;;4968752;28;20039;-72
2021/11/11 04:20:52;;;;;;;64.60;38.28;;;0.80;99.90;;;;;;4962090;28;20054;-72
2021/11/11 04:23:21;;;;;;;64.18;38.05;;;0.80;99.90;;;;;;4954468;28;20047;-72
2021/11/11 04:26:03;;;;;;;50.30;36.85;;;0.80;99.90;;;;;;4959960;28;20042;-72
2021/11/11 04:28:38;;;;;;;45.22;34.40;;;0.80;99.90;;;;;;4971200;28;20053;-72
2021/11/11 04:31:14;;;;;;;52.63;32.75;;;0.80;99.90;;;;;;4965752;28;20046;-72
2021/11/11 04:33:42;;;;;;;51.78;35.50;;;0.70;99.90;;;;;;4952932;28;20055;-74
2021/11/11 04:37:08;;;;;;;70.55;34.33;;;0.70;99.90;;;;;;4969679;28;20073;-71
2021/11/11 04:39:30;;;;;;;102.82;38.30;;;0.70;99.90;;;;;;4963346;28;20039;-72
2021/11/11 04:44:48;;;;;;;73.45;37.60;;;0.70;99.90;;;;;;4953754;28;20050;-72
2021/11/11 05:05:40;;;;;;;51.47;36.45;;;0.90;99.90;;;;;;4952499;28;20044;-72
2021/11/11 05:08:07;;;;;;;41.42;34.30;;;0.90;99.90;;;;;;4953175;28;20047;-71
2021/11/11 05:10:35;;;;;;;98.65;41.67;;;1.00;99.90;;;;;;4956037;28;20046;-72
2021/11/11 05:13:02;;;;;;;80.10;37.40;;;1.00;99.90;;;;;;4963456;28;20106;-71
2021/11/11 05:15:29;;;;;;;76.53;38.30;;;0.80;99.90;;;;;;4968750;28;20062;-72
2021/11/11 05:17:55;;;;;;;45.85;34.03;;;0.80;99.90;;;;;;4952225;28;20046;-72
2021/11/11 05:20:28;;;;;;;59.80;34.80;;;0.70;99.90;;;;;;4969111;28;20049;-79
2021/11/11 05:22:54;;;;;;;36.03;32.15;;;0.80;99.90;;;;;;4955633;28;20297;-72
2021/11/11 05:25:21;;;;;;;72.85;36.65;;;0.80;99.90;;;;;;4969669;28;20516;-72
2021/11/11 05:27:50;;;;;;;76.32;37.22;;;0.80;99.90;;;;;;4952243;28;20039;-72
2021/11/11 05:30:18;;;;;;;74.28;33.72;;;0.70;99.90;;;;;;4963996;28;20046;-72
2021/11/11 05:32:46;;;;;;;56.17;33.28;;;0.70;99.90;;;;;;4968624;28;20055;-72
2021/11/11 05:35:15;;;;;;;60.15;35.95;;;0.70;99.90;;;;;;4958811;28;20050;-72
2021/11/11 05:37:43;;;;;;;82.25;36.92;;;0.60;99.90;;;;;;4958142;28;20043;-72
2021/11/11 05:40:12;;;;;;;72.65;35.58;;;0.60;99.90;;;;;;4953705;28;20058;-72
2021/11/11 05:42:42;;;;;;;57.60;34.75;;;0.70;99.90;;;;;;4969819;28;20051;-71
2021/11/11 05:45:10;;;;;;;78.43;38.30;;;0.70;99.90;;;;;;4974228;28;20038;-71
2021/11/11 05:47:37;;;;;;;102.25;39.03;;;0.80;99.90;;;;;;4980360;28;20043;-71
2021/11/11 05:50:07;;;;;;;71.47;38.85;;;0.80;99.90;;;;;;4968618;28;20059;-71
2021/11/11 05:52:36;;;;;;;63.08;37.85;;;0.80;99.90;;;;;;4961173;28;20046;-71
2021/11/11 05:55:05;;;;;;;69.00;37.20;;;0.70;99.90;;;;;;4957919;28;20516;-71
2021/11/11 05:57:31;;;;;;;78.40;37.40;;;0.80;99.90;;;;;;4958726;28;20492;-71
2021/11/11 05:59:58;;;;;;;56.00;36.83;;;0.70;99.90;;;;;;4957089;28;20397;-71
2021/11/11 06:02:25;;;;;;;82.00;38.63;;;0.70;99.90;;;;;;4964965;28;20141;-72
2021/11/11 06:04:52;;;;;;;69.90;35.95;;;0.70;99.90;;;;;;4953492;28;20039;-71
2021/11/11 06:07:21;;;;;;;80.22;39.03;;;0.80;99.90;;;;;;4981420;28;20047;-71
2021/11/11 06:09:47;;;;;;;77.43;39.67;;;0.80;99.90;;;;;;4952087;29;20047;-71
2021/11/11 06:12:14;;;;;;;66.85;38.03;;;0.80;99.90;;;;;;4958847;28;20054;-75
2021/11/11 06:14:40;;;;;;;72.72;37.20;;;0.80;99.90;;;;;;4967968;28;20043;-71
2021/11/11 06:17:06;;;;;;;62.55;37.85;;;0.80;99.90;;;;;;4953573;28;20493;-71
2021/11/11 06:19:35;;;;;;;49.95;36.80;;;0.80;99.90;;;;;;4968863;28;20496;-72
2021/11/11 06:22:03;;;;;;;56.45;39.50;;;0.90;99.90;;;;;;4956511;28;20178;-71
2021/11/11 06:24:31;;;;;;;71.20;40.50;;;0.90;99.90;;;;;;4970723;28;20047;-71
2021/11/11 06:26:57;;;;;;;83.97;44.67;;;0.90;99.90;;;;;;4962406;28;20062;-72
2021/11/11 06:29:24;;;;;;;86.18;44.22;;;0.90;99.90;;;;;;4975189;28;20047;-71
2021/11/11 06:31:50;;;;;;;70.20;39.92;;;0.80;99.90;;;;;;4971787;28;20043;-71
2021/11/11 06:34:23;;;;;;;58.90;42.22;;;0.80;99.90;;;;;;4968398;28;20078;-71
2021/11/11 06:36:50;;;;;;;70.93;42.47;;;0.80;99.90;;;;;;4972969;28;20396;-71
2021/11/11 06:39:16;;;;;;;63.00;38.50;;;0.80;99.90;;;;;;4973084;28;20061;-72
2021/11/11 06:41:42;;;;;;;58.58;37.65;;;0.90;99.90;;;;;;4975822;28;20037;-71
2021/11/11 06:44:09;;;;;;;65.13;38.63;;;0.90;99.90;;;;;;4967108;28;20477;-73
2021/11/11 06:46:36;;;;;;;72.10;39.45;;;0.90;99.90;;;;;;4955460;28;20369;-76
2021/11/11 06:49:03;;;;;;;68.32;38.15;;;0.90;99.90;;;;;;4956846;28;20495;-72
2021/11/11 06:51:29;;;;;;;67.78;40.20;;;0.90;99.90;;;;;;4955759;28;20043;-73
2021/11/11 06:53:56;;;;;;;74.53;41.47;;;0.90;99.90;;;;;;4961611;28;20038;-72
2021/11/11 06:56:22;;;;;;;67.95;38.03;;;0.90;99.90;;;;;;4974082;28;20476;-72
2021/11/11 06:58:49;;;;;;;86.50;36.30;;;0.90;99.90;;;;;;4972612;28;20051;-71
2021/11/11 07:01:17;;;;;;;69.22;36.53;;;0.90;99.90;;;;;;4957587;28;20031;-74
2021/11/11 07:03:43;;;;;;;72.25;35.33;;;0.80;99.90;;;;;;4967218;28;20043;-73
2021/11/11 07:06:10;;;;;;;62.25;34.40;;;0.80;99.90;;;;;;4956916;28;20047;-73
2021/11/11 07:08:36;;;;;;;78.20;38.15;;;0.90;99.90;;;;;;4965749;28;20043;-74
2021/11/11 07:11:04;;;;;;;92.32;39.78;;;0.90;99.90;;;;;;4956801;28;20050;-74
2021/11/11 07:13:30;;;;;;;84.78;38.08;;;0.80;99.90;;;;;;4956244;28;20058;-73
2021/11/11 07:15:57;;;;;;;61.67;34.30;;;0.90;99.90;;;;;;4956709;28;20031;-73
2021/11/11 07:18:23;;;;;;;71.43;37.08;;;0.90;99.90;;;;;;4956521;28;20070;-73
2021/11/11 07:20:50;;;;;;;83.80;40.75;;;0.90;99.90;;;;;;4956498;28;20393;-73
2021/11/11 07:23:20;;;;;;;58.97;37.13;;;0.90;99.90;;;;;;4956839;28;20349;-74
2021/11/11 07:25:47;;;;;;;77.63;37.00;;;0.90;99.90;;;;;;4955883;28;20031;-74
2021/11/11 07:28:15;;;;;;;93.10;38.38;;;0.90;99.90;;;;;;4956540;28;20051;-74
2021/11/11 07:30:43;;;;;;;79.60;37.47;;;1.00;99.90;;;;;;4954962;28;20480;-74
2021/11/11 07:33:09;;;;;;;62.88;38.22;;;1.10;99.90;;;;;;4956938;28;20039;-73
2021/11/11 07:35:36;;;;;;;56.80;32.47;;;1.10;99.90;;;;;;4955343;28;20044;-75
2021/11/11 07:38:03;;;;;;;82.57;35.88;;;1.00;99.90;;;;;;4956205;28;20492;-73
2021/11/11 07:40:29;;;;;;;77.18;35.90;;;1.00;99.90;;;;;;4966715;28;20039;-74
2021/11/11 07:42:56;;;;;;;73.13;35.20;;;1.00;99.90;;;;;;4960417;28;20032;-73
2021/11/11 07:45:34;;;;;;;70.78;34.13;;;1.00;99.90;;;;;;4969393;28;20050;-74
2021/11/11 07:48:02;;;;;;;53.30;36.92;;;1.00;99.90;;;;;;4956201;28;20054;-73
2021/11/11 07:50:34;;;;;;;116.53;39.72;;;1.00;99.90;;;;;;4955096;28;20035;-73
2021/11/11 07:53:02;;;;;;;83.38;35.40;;;1.00;99.90;;;;;;4955363;28;20511;-77
2021/11/11 07:55:30;;;;;;;62.35;36.40;;;1.00;99.90;;;;;;4956042;28;20042;-78
2021/11/11 07:57:59;;;;;;;81.20;37.85;;;1.00;99.90;;;;;;4955783;28;20027;-74
2021/11/11 08:00:25;;;;;;;90.30;39.15;;;1.10;99.90;;;;;;4961174;28;20042;-74
2021/11/11 08:02:51;;;;;;;95.60;36.17;;;1.10;99.90;;;;;;4960713;28;20404;-74
2021/11/11 08:05:19;;;;;;;59.42;34.17;;;1.00;99.90;;;;;;4955574;28;20035;-74
2021/11/11 08:07:48;;;;;;;106.10;40.20;;;1.00;99.90;;;;;;4962426;28;20038;-74
2021/11/11 08:10:17;;;;;;;66.93;36.15;;;1.10;99.90;;;;;;4955625;28;20035;-74
2021/11/11 08:12:44;;;;;;;58.35;36.75;;;1.10;99.90;;;;;;4955366;28;20039;-74
2021/11/11 08:15:10;;;;;;;72.78;35.83;;;1.20;99.90;;;;;;4954710;28;20031;-74
2021/11/11 08:17:39;;;;;;;67.00;34.80;;;1.40;99.90;;;;;;4973261;28;20030;-74
2021/11/11 08:20:06;;;;;;;77.72;35.42;;;1.30;99.90;;;;;;4963099;28;20031;-74
2021/11/11 08:22:33;;;;;;;87.97;32.33;;;1.20;99.90;;;;;;4968700;28;20050;-74
2021/11/11 08:25:00;;;;;;;87.45;33.00;;;1.30;99.90;;;;;;4961720;28;20041;-74
2021/11/11 08:27:26;;;;;;;56.92;30.73;;;1.30;99.90;;;;;;4963839;28;20035;-74
2021/11/11 08:29:54;;;;;;;66.90;31.55;;;1.20;99.90;;;;;;4954621;28;20039;-74
2021/11/11 08:32:21;;;;;;;47.92;28.65;;;1.10;99.90;;;;;;4955697;28;20377;-74
2021/11/11 08:34:48;;;;;;;52.53;31.20;;;1.20;99.90;;;;;;4953756;28;20051;-74
2021/11/11 08:37:16;;;;;;;39.00;28.30;;;1.20;99.90;;;;;;4955207;28;20027;-74
2021/11/11 08:39:45;;;;;;;42.53;31.10;;;1.30;99.90;;;;;;4954816;28;20035;-74
2021/11/11 08:42:12;;;;;;;42.58;29.95;;;1.40;99.90;;;;;;4955154;28;20032;-74
2021/11/11 08:44:42;;;;;;;48.30;31.15;;;1.40;99.90;;;;;;4955009;28;20038;-74
2021/11/11 08:47:14;;;;;;;61.10;29.27;;;1.40;99.90;;;;;;4952915;28;20046;-74
2021/11/11 08:49:42;;;;;;;63.30;28.25;;;1.30;99.90;;;;;;4975507;28;20054;-74
2021/11/11 08:52:09;;;;;;;33.22;25.70;;;1.30;99.90;;;;;;4954606;28;20373;-74
2021/11/11 08:54:37;;;;;;;59.38;27.70;;;1.30;99.90;;;;;;4954669;28;20054;-74
2021/11/11 08:57:04;;;;;;;62.95;28.70;;;1.30;99.90;;;;;;4955145;28;20043;-74
2021/11/11 08:59:30;;;;;;;45.47;26.60;;;1.30;99.90;;;;;;4954458;28;20035;-75
2021/11/11 09:01:56;;;;;;;46.85;25.92;;;1.40;99.90;;;;;;4954545;28;20031;-75
2021/11/11 09:04:25;;;;;;;50.30;27.67;;;1.40;99.90;;;;;;4955182;28;20395;-74
2021/11/11 09:06:54;;;;;;;44.00;26.63;;;1.40;99.90;;;;;;4954474;28;20046;-74
2021/11/11 09:09:21;;;;;;;53.75;27.08;;;1.40;99.90;;;;;;4962321;28;20027;-74
2021/11/11 09:11:51;;;;;;;50.78;28.33;;;1.50;99.90;;;;;;4955536;28;20035;-74
2021/11/11 09:14:17;;;;;;;65.38;26.75;;;1.60;99.90;;;;;;4953771;28;20054;-74
2021/11/11 09:16:44;;;;;;;74.50;27.42;;;1.60;99.90;;;;;;4963345;28;20031;-74
2021/11/11 09:19:11;;;;;;;55.55;32.55;;;1.50;99.90;;;;;;4954289;28;20062;-75
2021/11/11 09:21:42;;;;;;;53.03;26.10;;;1.60;99.90;;;;;;4980726;28;20047;-74
2021/11/11 09:24:10;;;;;;;36.10;26.60;;;1.70;99.90;;;;;;4954834;28;20377;-74
2021/11/11 09:26:38;;;;;;;59.05;27.13;;;1.70;99.90;;;;;;4964140;28;20039;-74
2021/11/11 09:29:08;;;;;;;56.42;26.98;;;1.70;99.90;;;;;;4961623;28;20031;-74
2021/11/11 09:31:38;;;;;;;58.92;27.83;;;1.70;99.90;;;;;;4953891;28;20039;-74
2021/11/11 09:34:06;;;;;;;40.42;28.75;;;1.90;99.90;;;;;;4954115;28;20050;-74
2021/11/11 09:36:33;;;;;;;57.97;29.20;;;2.20;99.90;;;;;;4953817;28;20058;-74
2021/11/11 09:39:03;;;;;;;48.63;29.55;;;2.00;99.90;;;;;;4954039;28;20043;-74
2021/11/11 09:41:30;;;;;;;61.38;32.85;;;2.00;99.90;;;;;;4952760;28;20050;-74
2021/11/11 09:43:56;;;;;;;52.00;33.05;;;2.00;99.90;;;;;;4954256;28;20031;-74
2021/11/11 09:46:22;;;;;;;55.75;37.50;;;2.10;99.90;;;;;;4956015;28;20039;-74
2021/11/11 09:48:49;;;;;;;63.60;39.90;;;2.20;99.90;;;;;;4955804;28;20124;-75
2021/11/11 09:51:19;;;;;;;59.83;39.05;;;2.30;99.90;;;;;;4954540;28;20082;-74
2021/11/11 09:59:40;;;;;;;72.13;40.75;;;2.20;99.90;;;;;;4962964;28;20481;-74
2021/11/11 10:02:09;;;;;;;85.68;41.53;;;2.20;99.90;;;;;;4960589;28;20362;-74
2021/11/11 10:04:37;;;;;;;76.10;38.25;;;2.10;99.90;;;;;;4959705;28;20062;-74
2021/11/11 10:07:41;;;;;;;78.88;43.63;;;2.00;99.90;;;;;;4964273;28;20026;-74
2021/11/11 10:10:07;;;;;;;74.63;42.78;;;2.10;99.90;;;;;;4959014;28;20043;-74
2021/11/11 10:12:34;;;;;;;76.68;34.88;;;2.20;99.90;;;;;;4969271;28;20047;-74
2021/11/11 10:15:09;;;;;;;84.03;36.97;;;2.10;99.90;;;;;;4960103;28;20063;-74
2021/11/11 10:17:41;;;;;;;75.30;38.22;;;2.00;99.90;;;;;;4960019;28;20038;-74
2021/11/11 10:20:11;;;;;;;66.60;40.33;;;2.10;99.90;;;;;;4960771;28;20039;-74
2021/11/11 10:22:41;;;;;;;76.60;39.30;;;2.20;99.90;;;;;;4960120;28;20034;-75
2021/11/11 10:25:10;;;;;;;72.22;42.95;;;2.10;99.90;;;;;;4958552;28;20027;-74
2021/11/11 10:27:43;;;;;;;80.18;46.30;;;2.10;99.90;;;;;;4972321;28;20039;-74
2021/11/11 10:30:09;;;;;;;67.68;42.08;;;2.20;99.90;;;;;;4964067;28;20050;-74
2021/11/11 10:33:09;;;;;;;81.65;45.90;;;2.30;99.90;;;;;;4959579;28;20031;-75
2021/11/11 10:35:43;;;;;;;86.00;53.05;;;2.40;99.90;;;;;;4959874;28;20488;-74
2021/11/11 10:38:15;;;;;;;99.28;56.67;;;2.40;99.90;;;;;;4960409;28;20034;-74
2021/11/11 10:40:48;;;;;;;79.22;46.78;;;2.40;99.90;;;;;;4960207;28;20486;-74
2021/11/11 10:43:25;;;;;;;74.90;46.13;;;2.40;99.90;;;;;;4978539;28;20046;-74
2021/11/11 10:45:54;;;;;;;101.43;46.35;;;2.40;99.90;;;;;;4970449;28;20203;-74
2021/11/11 10:48:23;;;;;;;77.03;46.33;;;2.30;99.90;;;;;;4960135;28;20031;-73
2021/11/11 10:50:53;;;;;;;90.22;49.15;;;2.30;99.90;;;;;;4959870;28;20035;-73
2021/11/11 10:53:27;;;;;;;90.85;53.17;;;2.30;99.90;;;;;;4958630;28;20100;-73
2021/11/11 10:55:58;;;;;;;102.80;54.65;;;2.40;99.90;;;;;;4959951;28;20495;-74
2021/11/11 10:58:27;;;;;;;101.13;56.42;;;2.40;99.90;;;;;;4975402;28;20034;-74
2021/11/11 11:00:58;;;;;;;101.47;59.15;;;2.50;99.90;;;;;;4961828;28;20047;-74
2021/11/11 11:03:32;;;;;;;118.90;60.55;;;2.60;99.90;;;;;;4960328;28;20039;-74
2021/11/11 11:06:02;;;;;;;77.70;56.55;;;2.70;99.90;;;;;;4959784;28;20388;-74
2021/11/11 11:08:37;;;;;;;94.05;53.28;;;2.80;99.90;;;;;;4959866;28;20038;-74
2021/11/11 11:11:12;;;;;;;104.07;60.35;;;2.80;99.90;;;;;;4959973;28;20035;-74
2021/11/11 11:13:43;;;;;;;131.32;74.40;;;2.70;99.90;;;;;;4957133;28;20054;-74
2021/11/11 11:16:22;;;;;;;174.57;79.78;;;2.70;99.90;;;;;;4956922;28;20031;-74
2021/11/11 11:18:55;;;;;;;133.30;62.15;;;2.70;99.90;;;;;;4956690;28;20054;-78
2021/11/11 11:21:40;;;;;;;105.88;54.72;;;2.80;99.90;;;;;;4961746;28;20054;-74
2021/11/11 11:24:15;;;;;;;105.93;59.50;;;2.70;99.90;;;;;;4956534;28;20046;-75
2021/11/11 11:26:54;;;;;;;98.68;54.83;;;2.60;99.90;;;;;;4956671;28;20040;-74
2021/11/11 11:29:34;;;;;;;95.43;57.92;;;2.70;99.90;;;;;;4956927;28;20039;-74
2021/11/11 11:32:07;;;;;;;149.15;65.93;;;2.80;99.90;;;;;;4971555;28;20043;-75
2021/11/11 11:34:43;;;;;;;112.43;64.15;;;2.90;99.90;;;;;;4970390;28;20047;-75
2021/11/11 11:37:14;;;;;;;82.35;55.63;;;2.90;99.90;;;;;;4957818;28;20050;-74
2021/11/11 11:39:53;;;;;;;71.82;50.78;;;3.00;99.90;;;;;;4956207;28;20035;-75
2021/11/11 11:42:39;;;;;;;61.83;48.53;;;3.20;99.90;;;;;;4956080;28;20400;-74
2021/11/11 11:45:19;;;;;;;72.72;49.45;;;3.30;99.90;;;;;;4960556;28;20039;-75
2021/11/11 11:50:21;;;;;;;81.25;53.58;;;3.50;99.90;;;;;;4956434;28;20291;-75
2021/11/11 11:52:57;;;;;;;72.68;55.58;;;3.50;99.90;;;;;;4955987;28;20035;-75
2021/11/11 11:55:29;;;;;;;74.20;53.20;;;3.60;99.90;;;;;;4956144;28;20035;-75
2021/11/11 12:39:42;;;;;;;127.97;87.50;;;3.50;99.90;;;;;;4967841;28;20406;-74
2021/11/11 12:42:14;;;;;;;161.00;90.70;;;3.50;99.90;;;;;;4962146;28;20038;-74
2021/11/11 12:45:18;;;;;;;151.85;92.72;;;3.60;99.90;;;;;;4954707;28;20054;-75
2021/11/11 12:48:05;;;;;;;140.90;89.55;;;3.60;99.90;;;;;;4954913;28;20043;-75
2021/11/11 12:50:43;;;;;;;143.88;89.43;;;3.70;99.90;;;;;;4955369;28;20445;-74
2021/11/11 12:53:19;;;;;;;145.40;91.18;;;3.70;99.90;;;;;;4954854;28;20042;-74
2021/11/11 12:55:57;;;;;;;155.18;91.05;;;3.70;99.90;;;;;;4963845;28;20035;-74
2021/11/11 12:58:42;;;;;;;135.57;88.65;;;3.80;99.90;;;;;;4961139;28;20034;-74
2021/11/11 13:01:25;;;;;;;141.93;86.85;;;3.80;99.90;;;;;;4961266;28;20042;-75
2021/11/11 13:04:02;;;;;;;132.52;88.70;;;3.70;99.90;;;;;;4954534;28;20038;-75
2021/11/11 13:06:39;;;;;;;145.60;88.28;;;3.60;99.90;;;;;;4954878;28;20038;-75
2021/11/11 13:09:11;;;;;;;142.93;88.32;;;3.70;99.90;;;;;;4954353;28;20027;-75
2021/11/11 13:11:43;;;;;;;130.52;86.03;;;3.70;99.90;;;;;;4954559;28;20251;-75
2021/11/11 13:14:23;;;;;;;131.00;85.28;;;3.60;99.90;;;;;;4954424;28;20453;-74
2021/11/11 13:16:58;;;;;;;149.07;91.82;;;3.60;99.90;;;;;;4963188;28;20027;-74
2021/11/11 13:19:48;;;;;;;131.90;96.22;;;3.60;99.90;;;;;;4959489;28;20035;-74
2021/11/11 13:22:39;;;;;;;159.83;95.67;;;3.70;99.90;;;;;;4954526;28;20035;-74
2021/11/11 13:59:45;;;;;;;146.48;89.75;;;4.00;99.90;;;;;;4961977;28;20042;-76
2021/11/11 15:15:34;;;;;;;143.85;96.28;;;3.90;99.90;;;;;;4956499;28;20039;-77
2021/11/11 15:18:13;;;;;;;140.02;94.75;;;3.90;99.90;;;;;;4955831;28;20267;-76
2021/11/11 15:21:03;;;;;;;151.27;95.32;;;3.90;99.90;;;;;;4960714;28;20124;-77
2021/11/11 16:27:03;;;;;;;125.53;84.32;;;3.50;99.90;;;;;;4957951;28;20286;-75
2021/11/11 16:29:30;;;;;;;149.93;87.28;;;3.50;99.90;;;;;;4961248;28;20060;-76
2021/11/11 16:31:59;;;;;;;128.20;84.63;;;3.40;99.90;;;;;;4954469;28;20031;-75
2021/11/11 16:34:26;;;;;;;134.65;88.72;;;3.40;99.90;;;;;;4959586;28;20051;-75
2021/11/11 16:36:53;;;;;;;137.55;91.13;;;3.40;99.90;;;;;;4961948;28;20043;-75
2021/11/11 16:39:20;;;;;;;141.32;92.70;;;3.40;99.90;;;;;;4954789;28;20030;-76
2021/11/11 16:41:46;;;;;;;141.77;91.15;;;3.40;99.90;;;;;;4954451;28;20043;-76
2021/11/11 16:44:13;;;;;;;139.38;85.63;;;3.40;99.90;;;;;;4955068;28;20528;-75
2021/11/11 16:46:42;;;;;;;149.55;89.05;;;3.40;99.90;;;;;;4964168;28;20031;-76
2021/11/11 16:49:09;;;;;;;133.07;88.88;;;3.30;99.90;;;;;;4973232;28;20388;-75
2021/11/11 16:51:37;;;;;;;133.05;93.30;;;3.30;99.90;;;;;;4972869;28;20109;-74
2021/11/11 16:54:04;;;;;;;140.57;87.30;;;3.30;99.90;;;;;;4970158;28;20031;-76